sensor_id;sensor_type;location;lat;lon;timestamp;temperature;humidity
39019;DHT22;24786;51.984;5.872;2023-08-17T00:00:19;18.60;99.90
39019;DHT22;24786;51.984;5.872;2023-08-17T00:02:44;18.60;99.90
39019;DHT22;24786;51.984;5.872;2023-08-17T00:05:10;18.70;99.90
39019;DHT22;24786;51.984;5.872;2023-08-17T00:07:35;18.70;99.90
39019;DHT22;24786;51.984;5.872;2023-08-17T00:10:01;18.60;99.90
39019;DHT22;24786;51.984;5.872;2023-08-17T00:12:27;18.70;99.90
39019;DHT22;24786;51.984;5.872;2023-08-17T00:14:52;18.60;99.90
39019;DHT22;24786;51.984;5.872;2023-08-17T00:17:18;18.60;99.90
39019;DHT22;24786;51.984;5.872;2023-08-17T00:19:44;18.70;99.90
39019;DHT22;24786;51.984;5.872;2023-08-17T00:22:09;18.60;99.90
39019;DHT22;24786;51.984;5.872;2023-08-17T00:24:34;18.60;99.90
39019;DHT22;24786;51.984;5.872;2023-08-17T00:27:00;18.60;99.90
39019;DHT22;24786;51.984;5.872;2023-08-17T00:29:26;18.60;99.90
39019;DHT22;24786;51.984;5.872;2023-08-17T00:31:51;18.50;99.90
39019;DHT22;24786;51.984;5.872;2023-08-17T00:34:18;18.60;99.90
39019;DHT22;24786;51.984;5.872;2023-08-17T00:36:43;18.50;99.90
39019;DHT22;24786;51.984;5.872;2023-08-17T00:39:09;18.50;99.90
39019;DHT22;24786;51.984;5.872;2023-08-17T00:41:34;18.50;99.90
39019;DHT22;24786;51.984;5.872;2023-08-17T00:44:00;18.50;99.90
39019;DHT22;24786;51.984;5.872;2023-08-17T00:46:26;18.50;99.90
39019;DHT22;24786;51.984;5.872;2023-08-17T00:48:52;18.50;99.90
39019;DHT22;24786;51.984;5.872;2023-08-17T00:51:21;18.50;99.90
39019;DHT22;24786;51.984;5.872;2023-08-17T00:53:47;18.50;99.90
39019;DHT22;24786;51.984;5.872;2023-08-17T00:56:12;18.50;99.90
39019;DHT22;24786;51.984;5.872;2023-08-17T00:58:38;18.50;99.90
39019;DHT22;24786;51.984;5.872;2023-08-17T01:01:04;18.50;99.90
39019;DHT22;24786;51.984;5.872;2023-08-17T01:03:29;18.40;99.90
39019;DHT22;24786;51.984;5.872;2023-08-17T01:05:57;18.40;99.90
39019;DHT22;24786;51.984;5.872;2023-08-17T01:08:23;18.40;99.90
39019;DHT22;24786;51.984;5.872;2023-08-17T01:16:21;18.30;99.90
39019;DHT22;24786;51.984;5.872;2023-08-17T01:18:49;18.20;99.90
39019;DHT22;24786;51.984;5.872;2023-08-17T01:21:16;18.30;99.90
39019;DHT22;24786;51.984;5.872;2023-08-17T01:23:44;18.20;99.90
39019;DHT22;24786;51.984;5.872;2023-08-17T01:26:09;18.30;99.90
39019;DHT22;24786;51.984;5.872;2023-08-17T01:28:35;18.10;99.90
39019;DHT22;24786;51.984;5.872;2023-08-17T01:31:04;18.10;99.90
39019;DHT22;24786;51.984;5.872;2023-08-17T01:33:33;18.10;99.90
39019;DHT22;24786;51.984;5.872;2023-08-17T01:36:33;18.10;99.90
39019;DHT22;24786;51.984;5.872;2023-08-17T01:38:52;18.10;99.90
39019;DHT22;24786;51.984;5.872;2023-08-17T01:41:20;18.10;99.90
39019;DHT22;24786;51.984;5.872;2023-08-17T01:43:47;18.10;99.90
39019;DHT22;24786;51.984;5.872;2023-08-17T01:46:16;18.10;99.90
39019;DHT22;24786;51.984;5.872;2023-08-17T01:48:41;18.10;99.90
39019;DHT22;24786;51.984;5.872;2023-08-17T01:51:07;18.00;99.90
39019;DHT22;24786;51.984;5.872;2023-08-17T01:53:33;18.10;99.90
39019;DHT22;24786;51.984;5.872;2023-08-17T01:55:58;18.00;99.90
39019;DHT22;24786;51.984;5.872;2023-08-17T01:58:24;18.00;99.90
39019;DHT22;24786;51.984;5.872;2023-08-17T02:00:49;18.00;99.90
39019;DHT22;24786;51.984;5.872;2023-08-17T02:03:15;17.90;99.90
39019;DHT22;24786;51.984;5.872;2023-08-17T02:05:46;17.80;99.90
39019;DHT22;24786;51.984;5.872;2023-08-17T02:08:12;17.90;99.90
39019;DHT22;24786;51.984;5.872;2023-08-17T02:10:38;17.90;99.90
39019;DHT22;24786;51.984;5.872;2023-08-17T02:13:03;17.90;99.90
39019;DHT22;24786;51.984;5.872;2023-08-17T02:15:29;17.80;99.90
39019;DHT22;24786;51.984;5.872;2023-08-17T02:17:56;17.80;99.90
39019;DHT22;24786;51.984;5.872;2023-08-17T02:20:22;17.80;99.90
39019;DHT22;24786;51.984;5.872;2023-08-17T02:22:47;17.80;99.90
39019;DHT22;24786;51.984;5.872;2023-08-17T02:25:13;17.70;99.90
39019;DHT22;24786;51.984;5.872;2023-08-17T02:27:38;17.80;99.90
39019;DHT22;24786;51.984;5.872;2023-08-17T02:30:04;17.70;99.90
39019;DHT22;24786;51.984;5.872;2023-08-17T02:32:29;17.70;99.90
39019;DHT22;24786;51.984;5.872;2023-08-17T02:34:55;17.70;99.90
39019;DHT22;24786;51.984;5.872;2023-08-17T02:37:20;17.70;99.90
39019;DHT22;24786;51.984;5.872;2023-08-17T02:39:46;17.70;99.90
39019;DHT22;24786;51.984;5.872;2023-08-17T02:42:11;17.80;99.90
39019;DHT22;24786;51.984;5.872;2023-08-17T02:44:37;17.70;99.90
39019;DHT22;24786;51.984;5.872;2023-08-17T02:47:02;17.60;99.90
39019;DHT22;24786;51.984;5.872;2023-08-17T02:49:28;17.60;99.90
39019;DHT22;24786;51.984;5.872;2023-08-17T02:51:53;17.60;99.90
39019;DHT22;24786;51.984;5.872;2023-08-17T02:54:19;17.70;99.90
39019;DHT22;24786;51.984;5.872;2023-08-17T02:56:44;17.60;99.90
39019;DHT22;24786;51.984;5.872;2023-08-17T02:59:10;17.60;99.90
39019;DHT22;24786;51.984;5.872;2023-08-17T03:01:35;17.60;99.90
39019;DHT22;24786;51.984;5.872;2023-08-17T03:04:00;17.60;99.90
39019;DHT22;24786;51.984;5.872;2023-08-17T03:06:26;17.60;99.90
39019;DHT22;24786;51.984;5.872;2023-08-17T03:08:51;17.60;99.90
39019;DHT22;24786;51.984;5.872;2023-08-17T03:11:18;17.60;99.90
39019;DHT22;24786;51.984;5.872;2023-08-17T03:13:43;17.50;99.90
39019;DHT22;24786;51.984;5.872;2023-08-17T03:16:11;17.50;99.90
39019;DHT22;24786;51.984;5.872;2023-08-17T03:18:36;17.50;99.90
39019;DHT22;24786;51.984;5.872;2023-08-17T03:21:01;17.50;99.90
39019;DHT22;24786;51.984;5.872;2023-08-17T03:23:27;17.40;99.90
39019;DHT22;24786;51.984;5.872;2023-08-17T03:25:53;17.50;99.90
39019;DHT22;24786;51.984;5.872;2023-08-17T03:28:18;17.50;99.90
39019;DHT22;24786;51.984;5.872;2023-08-17T03:30:44;17.40;99.90
39019;DHT22;24786;51.984;5.872;2023-08-17T03:33:09;17.30;99.90
39019;DHT22;24786;51.984;5.872;2023-08-17T03:35:35;17.40;99.90
39019;DHT22;24786;51.984;5.872;2023-08-17T03:38:03;17.30;99.90
39019;DHT22;24786;51.984;5.872;2023-08-17T03:40:28;17.30;99.90
39019;DHT22;24786;51.984;5.872;2023-08-17T03:42:54;17.20;99.90
39019;DHT22;24786;51.984;5.872;2023-08-17T03:45:19;17.20;99.90
39019;DHT22;24786;51.984;5.872;2023-08-17T03:47:45;17.10;99.90
39019;DHT22;24786;51.984;5.872;2023-08-17T03:50:10;17.20;99.90
39019;DHT22;24786;51.984;5.872;2023-08-17T03:52:36;17.10;99.90
39019;DHT22;24786;51.984;5.872;2023-08-17T03:55:01;17.00;99.90
39019;DHT22;24786;51.984;5.872;2023-08-17T03:57:27;17.00;99.90
39019;DHT22;24786;51.984;5.872;2023-08-17T03:59:52;16.90;99.90
39019;DHT22;24786;51.984;5.872;2023-08-17T04:02:18;16.90;99.90
39019;DHT22;24786;51.984;5.872;2023-08-17T04:04:43;16.90;99.90
39019;DHT22;24786;51.984;5.872;2023-08-17T04:07:09;16.80;99.90
39019;DHT22;24786;51.984;5.872;2023-08-17T04:09:34;16.80;99.90
39019;DHT22;24786;51.984;5.872;2023-08-17T04:12:00;16.80;99.90
39019;DHT22;24786;51.984;5.872;2023-08-17T04:14:25;16.80;99.90
39019;DHT22;24786;51.984;5.872;2023-08-17T04:16:51;16.70;99.90
39019;DHT22;24786;51.984;5.872;2023-08-17T04:19:17;16.80;99.90
39019;DHT22;24786;51.984;5.872;2023-08-17T04:21:42;16.70;99.90
39019;DHT22;24786;51.984;5.872;2023-08-17T04:24:08;16.70;99.90
39019;DHT22;24786;51.984;5.872;2023-08-17T04:26:33;16.70;99.90
39019;DHT22;24786;51.984;5.872;2023-08-17T04:28:59;16.60;99.90
39019;DHT22;24786;51.984;5.872;2023-08-17T04:31:24;16.60;99.90
39019;DHT22;24786;51.984;5.872;2023-08-17T04:33:50;16.50;99.90
39019;DHT22;24786;51.984;5.872;2023-08-17T04:36:16;16.50;99.90
39019;DHT22;24786;51.984;5.872;2023-08-17T04:38:42;16.60;99.90
39019;DHT22;24786;51.984;5.872;2023-08-17T04:41:07;16.60;99.90
39019;DHT22;24786;51.984;5.872;2023-08-17T04:43:33;16.60;99.90
39019;DHT22;24786;51.984;5.872;2023-08-17T04:45:58;16.50;99.90
39019;DHT22;24786;51.984;5.872;2023-08-17T04:48:24;16.60;99.90
39019;DHT22;24786;51.984;5.872;2023-08-17T04:50:50;16.50;99.90
39019;DHT22;24786;51.984;5.872;2023-08-17T04:53:16;16.60;99.90
39019;DHT22;24786;51.984;5.872;2023-08-17T04:55:42;16.50;99.90
39019;DHT22;24786;51.984;5.872;2023-08-17T04:58:07;16.60;99.90
39019;DHT22;24786;51.984;5.872;2023-08-17T05:00:33;16.50;99.90
39019;DHT22;24786;51.984;5.872;2023-08-17T05:02:58;16.60;99.90
39019;DHT22;24786;51.984;5.872;2023-08-17T05:05:24;16.60;99.90
39019;DHT22;24786;51.984;5.872;2023-08-17T05:07:50;16.60;99.90
39019;DHT22;24786;51.984;5.872;2023-08-17T05:10:15;16.60;99.90
39019;DHT22;24786;51.984;5.872;2023-08-17T05:12:41;16.70;99.90
39019;DHT22;24786;51.984;5.872;2023-08-17T05:15:06;16.70;99.90
39019;DHT22;24786;51.984;5.872;2023-08-17T05:17:32;16.70;99.90
39019;DHT22;24786;51.984;5.872;2023-08-17T05:19:58;16.60;99.90
39019;DHT22;24786;51.984;5.872;2023-08-17T05:22:23;16.70;99.90
39019;DHT22;24786;51.984;5.872;2023-08-17T05:24:49;16.70;99.90
39019;DHT22;24786;51.984;5.872;2023-08-17T05:27:14;16.80;99.90
39019;DHT22;24786;51.984;5.872;2023-08-17T05:29:40;16.80;99.90
39019;DHT22;24786;51.984;5.872;2023-08-17T05:32:05;16.90;99.90
39019;DHT22;24786;51.984;5.872;2023-08-17T05:34:31;17.00;99.90
39019;DHT22;24786;51.984;5.872;2023-08-17T05:36:56;17.10;99.90
39019;DHT22;24786;51.984;5.872;2023-08-17T05:39:22;17.30;99.90
39019;DHT22;24786;51.984;5.872;2023-08-17T05:41:48;17.40;99.90
39019;DHT22;24786;51.984;5.872;2023-08-17T05:44:13;17.50;99.90
39019;DHT22;24786;51.984;5.872;2023-08-17T05:46:40;17.60;99.90
39019;DHT22;24786;51.984;5.872;2023-08-17T05:49:06;17.70;99.90
39019;DHT22;24786;51.984;5.872;2023-08-17T05:51:31;17.90;99.90
39019;DHT22;24786;51.984;5.872;2023-08-17T05:53:57;17.90;99.90
39019;DHT22;24786;51.984;5.872;2023-08-17T05:56:22;18.10;99.90
39019;DHT22;24786;51.984;5.872;2023-08-17T05:58:48;18.10;99.90
39019;DHT22;24786;51.984;5.872;2023-08-17T06:01:13;18.30;99.90
39019;DHT22;24786;51.984;5.872;2023-08-17T06:03:39;18.30;99.90
39019;DHT22;24786;51.984;5.872;2023-08-17T06:06:04;18.30;99.90
39019;DHT22;24786;51.984;5.872;2023-08-17T06:08:33;18.40;99.90
39019;DHT22;24786;51.984;5.872;2023-08-17T06:10:59;18.50;99.90
39019;DHT22;24786;51.984;5.872;2023-08-17T06:13:24;18.50;99.90
39019;DHT22;24786;51.984;5.872;2023-08-17T06:15:49;18.60;99.90
39019;DHT22;24786;51.984;5.872;2023-08-17T06:18:15;18.70;99.90
39019;DHT22;24786;51.984;5.872;2023-08-17T06:20:41;18.70;99.90
39019;DHT22;24786;51.984;5.872;2023-08-17T06:23:06;18.80;99.90
39019;DHT22;24786;51.984;5.872;2023-08-17T06:25:32;18.90;99.90
39019;DHT22;24786;51.984;5.872;2023-08-17T06:27:57;19.00;99.90
39019;DHT22;24786;51.984;5.872;2023-08-17T06:30:23;19.00;99.90
39019;DHT22;24786;51.984;5.872;2023-08-17T06:32:50;19.00;99.90
39019;DHT22;24786;51.984;5.872;2023-08-17T06:35:16;18.90;99.90
39019;DHT22;24786;51.984;5.872;2023-08-17T06:37:41;18.80;99.90
39019;DHT22;24786;51.984;5.872;2023-08-17T06:40:07;18.80;99.90
39019;DHT22;24786;51.984;5.872;2023-08-17T06:42:33;18.60;99.90
39019;DHT22;24786;51.984;5.872;2023-08-17T06:44:58;18.60;99.90
39019;DHT22;24786;51.984;5.872;2023-08-17T06:47:24;18.50;99.90
39019;DHT22;24786;51.984;5.872;2023-08-17T06:49:49;18.50;99.90
39019;DHT22;24786;51.984;5.872;2023-08-17T06:52:15;18.50;99.90
39019;DHT22;24786;51.984;5.872;2023-08-17T06:54:40;18.50;99.90
39019;DHT22;24786;51.984;5.872;2023-08-17T06:57:05;18.50;99.90
39019;DHT22;24786;51.984;5.872;2023-08-17T06:59:31;18.50;99.90
39019;DHT22;24786;51.984;5.872;2023-08-17T07:01:58;18.50;99.90
39019;DHT22;24786;51.984;5.872;2023-08-17T07:04:24;18.40;99.90
39019;DHT22;24786;51.984;5.872;2023-08-17T07:06:49;18.50;99.90
39019;DHT22;24786;51.984;5.872;2023-08-17T07:09:15;18.30;99.90
39019;DHT22;24786;51.984;5.872;2023-08-17T07:11:41;18.30;99.90
39019;DHT22;24786;51.984;5.872;2023-08-17T07:14:06;18.40;99.90
39019;DHT22;24786;51.984;5.872;2023-08-17T07:16:32;18.40;99.90
39019;DHT22;24786;51.984;5.872;2023-08-17T07:18:57;18.40;99.90
39019;DHT22;24786;51.984;5.872;2023-08-17T07:21:23;18.40;99.90
39019;DHT22;24786;51.984;5.872;2023-08-17T07:23:49;18.50;99.90
39019;DHT22;24786;51.984;5.872;2023-08-17T07:26:14;18.50;99.90
39019;DHT22;24786;51.984;5.872;2023-08-17T07:28:40;18.50;99.90
39019;DHT22;24786;51.984;5.872;2023-08-17T07:31:05;18.60;99.90
39019;DHT22;24786;51.984;5.872;2023-08-17T07:33:31;18.60;99.90
39019;DHT22;24786;51.984;5.872;2023-08-17T07:35:56;18.70;99.90
39019;DHT22;24786;51.984;5.872;2023-08-17T07:38:23;18.70;99.90
39019;DHT22;24786;51.984;5.872;2023-08-17T07:40:49;18.90;99.90
39019;DHT22;24786;51.984;5.872;2023-08-17T07:43:16;19.00;99.90
39019;DHT22;24786;51.984;5.872;2023-08-17T07:45:42;18.90;99.90
39019;DHT22;24786;51.984;5.872;2023-08-17T07:48:07;19.00;99.90
39019;DHT22;24786;51.984;5.872;2023-08-17T07:50:33;19.10;99.90
39019;DHT22;24786;51.984;5.872;2023-08-17T07:52:58;19.10;99.90
39019;DHT22;24786;51.984;5.872;2023-08-17T07:55:25;19.20;99.90
39019;DHT22;24786;51.984;5.872;2023-08-17T07:57:50;19.20;99.90
39019;DHT22;24786;51.984;5.872;2023-08-17T08:00:16;19.10;99.90
39019;DHT22;24786;51.984;5.872;2023-08-17T08:02:42;19.00;99.90
39019;DHT22;24786;51.984;5.872;2023-08-17T08:05:07;19.00;99.90
39019;DHT22;24786;51.984;5.872;2023-08-17T08:07:33;18.90;99.90
39019;DHT22;24786;51.984;5.872;2023-08-17T08:09:58;18.90;99.90
39019;DHT22;24786;51.984;5.872;2023-08-17T08:12:24;18.90;99.90
39019;DHT22;24786;51.984;5.872;2023-08-17T08:14:49;18.90;99.90
39019;DHT22;24786;51.984;5.872;2023-08-17T08:17:16;18.90;99.90
39019;DHT22;24786;51.984;5.872;2023-08-17T08:19:41;19.00;99.90
39019;DHT22;24786;51.984;5.872;2023-08-17T08:22:07;18.90;99.90
39019;DHT22;24786;51.984;5.872;2023-08-17T08:24:32;18.90;99.90
39019;DHT22;24786;51.984;5.872;2023-08-17T08:27:00;18.90;99.90
39019;DHT22;24786;51.984;5.872;2023-08-17T08:29:26;18.90;99.90
39019;DHT22;24786;51.984;5.872;2023-08-17T08:31:52;18.80;99.90
39019;DHT22;24786;51.984;5.872;2023-08-17T08:34:18;18.90;99.90
39019;DHT22;24786;51.984;5.872;2023-08-17T08:36:43;18.90;99.90
39019;DHT22;24786;51.984;5.872;2023-08-17T08:39:09;18.90;99.90
39019;DHT22;24786;51.984;5.872;2023-08-17T08:41:36;18.90;99.90
39019;DHT22;24786;51.984;5.872;2023-08-17T08:44:02;19.00;99.90
39019;DHT22;24786;51.984;5.872;2023-08-17T08:46:28;19.00;99.90
39019;DHT22;24786;51.984;5.872;2023-08-17T08:48:55;19.10;99.90
39019;DHT22;24786;51.984;5.872;2023-08-17T08:51:23;19.10;99.90
39019;DHT22;24786;51.984;5.872;2023-08-17T08:53:51;19.10;99.90
39019;DHT22;24786;51.984;5.872;2023-08-17T08:56:19;19.10;99.90
39019;DHT22;24786;51.984;5.872;2023-08-17T08:58:46;19.10;99.90
39019;DHT22;24786;51.984;5.872;2023-08-17T09:01:12;19.10;99.90
39019;DHT22;24786;51.984;5.872;2023-08-17T09:03:38;19.10;99.90
39019;DHT22;24786;51.984;5.872;2023-08-17T09:06:04;19.10;99.90
39019;DHT22;24786;51.984;5.872;2023-08-17T09:08:30;19.10;99.90
39019;DHT22;24786;51.984;5.872;2023-08-17T09:10:55;19.10;99.90
39019;DHT22;24786;51.984;5.872;2023-08-17T09:13:21;19.10;99.90
39019;DHT22;24786;51.984;5.872;2023-08-17T09:15:46;19.10;99.90
39019;DHT22;24786;51.984;5.872;2023-08-17T09:18:12;19.20;99.90
39019;DHT22;24786;51.984;5.872;2023-08-17T09:20:38;19.20;99.90
39019;DHT22;24786;51.984;5.872;2023-08-17T09:23:11;19.30;99.90
39019;DHT22;24786;51.984;5.872;2023-08-17T09:25:38;19.30;99.90
39019;DHT22;24786;51.984;5.872;2023-08-17T09:28:06;19.40;99.90
39019;DHT22;24786;51.984;5.872;2023-08-17T09:30:33;19.40;99.90
39019;DHT22;24786;51.984;5.872;2023-08-17T09:33:01;19.40;99.90
39019;DHT22;24786;51.984;5.872;2023-08-17T09:35:27;19.40;99.90
39019;DHT22;24786;51.984;5.872;2023-08-17T09:37:56;19.40;99.90
39019;DHT22;24786;51.984;5.872;2023-08-17T09:40:25;19.50;99.90
39019;DHT22;24786;51.984;5.872;2023-08-17T09:42:51;19.40;99.90
39019;DHT22;24786;51.984;5.872;2023-08-17T09:45:18;19.40;99.90
39019;DHT22;24786;51.984;5.872;2023-08-17T09:47:44;19.40;99.90
39019;DHT22;24786;51.984;5.872;2023-08-17T09:50:10;19.40;99.90
39019;DHT22;24786;51.984;5.872;2023-08-17T09:52:38;19.50;99.90
39019;DHT22;24786;51.984;5.872;2023-08-17T09:55:04;19.50;99.90
39019;DHT22;24786;51.984;5.872;2023-08-17T09:57:30;19.60;99.90
39019;DHT22;24786;51.984;5.872;2023-08-17T09:59:55;19.70;99.90
39019;DHT22;24786;51.984;5.872;2023-08-17T10:02:22;19.70;99.90
39019;DHT22;24786;51.984;5.872;2023-08-17T10:04:52;19.70;99.90
39019;DHT22;24786;51.984;5.872;2023-08-17T10:07:21;19.70;99.90
39019;DHT22;24786;51.984;5.872;2023-08-17T10:09:49;19.70;99.90
39019;DHT22;24786;51.984;5.872;2023-08-17T10:12:18;19.70;99.90
39019;DHT22;24786;51.984;5.872;2023-08-17T10:14:49;19.80;99.90
39019;DHT22;24786;51.984;5.872;2023-08-17T10:17:14;19.80;99.90
39019;DHT22;24786;51.984;5.872;2023-08-17T10:19:52;19.90;99.90
39019;DHT22;24786;51.984;5.872;2023-08-17T10:22:26;19.90;99.90
39019;DHT22;24786;51.984;5.872;2023-08-17T10:24:55;19.80;99.90
39019;DHT22;24786;51.984;5.872;2023-08-17T10:27:21;19.80;99.90
39019;DHT22;24786;51.984;5.872;2023-08-17T10:29:46;19.80;99.90
39019;DHT22;24786;51.984;5.872;2023-08-17T10:32:12;19.80;99.90
39019;DHT22;24786;51.984;5.872;2023-08-17T10:34:38;19.80;99.90
39019;DHT22;24786;51.984;5.872;2023-08-17T10:37:04;19.80;99.90
39019;DHT22;24786;51.984;5.872;2023-08-17T10:39:29;19.70;99.90
39019;DHT22;24786;51.984;5.872;2023-08-17T10:41:56;19.70;99.90
39019;DHT22;24786;51.984;5.872;2023-08-17T10:44:40;19.80;99.90
39019;DHT22;24786;51.984;5.872;2023-08-17T10:50:05;19.90;99.90
39019;DHT22;24786;51.984;5.872;2023-08-17T10:52:35;19.90;99.90
39019;DHT22;24786;51.984;5.872;2023-08-17T10:55:05;20.00;99.90
39019;DHT22;24786;51.984;5.872;2023-08-17T10:57:31;20.00;99.90
39019;DHT22;24786;51.984;5.872;2023-08-17T11:02:45;20.00;99.90
39019;DHT22;24786;51.984;5.872;2023-08-17T11:05:11;20.00;99.90
39019;DHT22;24786;51.984;5.872;2023-08-17T11:07:42;20.10;99.90
39019;DHT22;24786;51.984;5.872;2023-08-17T11:10:12;20.20;99.90
39019;DHT22;24786;51.984;5.872;2023-08-17T11:12:38;20.20;99.90
39019;DHT22;24786;51.984;5.872;2023-08-17T11:15:03;20.20;99.90
39019;DHT22;24786;51.984;5.872;2023-08-17T11:17:29;20.30;99.90
39019;DHT22;24786;51.984;5.872;2023-08-17T11:19:55;20.30;99.90
39019;DHT22;24786;51.984;5.872;2023-08-17T11:22:20;20.20;99.90
39019;DHT22;24786;51.984;5.872;2023-08-17T11:24:46;20.30;99.90
39019;DHT22;24786;51.984;5.872;2023-08-17T11:27:11;20.40;99.90
39019;DHT22;24786;51.984;5.872;2023-08-17T11:29:37;20.30;99.90
39019;DHT22;24786;51.984;5.872;2023-08-17T11:32:03;20.30;99.90
39019;DHT22;24786;51.984;5.872;2023-08-17T11:34:29;20.30;99.90
39019;DHT22;24786;51.984;5.872;2023-08-17T11:36:56;20.40;99.90
39019;DHT22;24786;51.984;5.872;2023-08-17T11:39:22;20.30;99.90
39019;DHT22;24786;51.984;5.872;2023-08-17T11:41:48;20.30;99.90
39019;DHT22;24786;51.984;5.872;2023-08-17T11:44:13;20.40;99.90
39019;DHT22;24786;51.984;5.872;2023-08-17T11:46:40;20.40;99.90
39019;DHT22;24786;51.984;5.872;2023-08-17T11:49:06;20.30;99.90
39019;DHT22;24786;51.984;5.872;2023-08-17T11:51:31;20.30;99.90
39019;DHT22;24786;51.984;5.872;2023-08-17T11:54:00;20.30;99.90
39019;DHT22;24786;51.984;5.872;2023-08-17T11:56:28;20.30;99.90
39019;DHT22;24786;51.984;5.872;2023-08-17T11:58:53;20.20;99.90
39019;DHT22;24786;51.984;5.872;2023-08-17T12:01:19;20.10;99.90
39019;DHT22;24786;51.984;5.872;2023-08-17T12:03:44;20.10;99.90
39019;DHT22;24786;51.984;5.872;2023-08-17T12:06:10;20.10;99.90
39019;DHT22;24786;51.984;5.872;2023-08-17T12:08:37;20.00;99.90
39019;DHT22;24786;51.984;5.872;2023-08-17T12:11:03;20.00;99.90
39019;DHT22;24786;51.984;5.872;2023-08-17T12:13:29;20.10;99.90
39019;DHT22;24786;51.984;5.872;2023-08-17T12:15:55;20.00;99.90
39019;DHT22;24786;51.984;5.872;2023-08-17T12:18:22;20.10;99.90
39019;DHT22;24786;51.984;5.872;2023-08-17T12:20:52;20.10;99.90
39019;DHT22;24786;51.984;5.872;2023-08-17T12:23:17;20.10;99.90
39019;DHT22;24786;51.984;5.872;2023-08-17T12:25:43;20.20;99.90
39019;DHT22;24786;51.984;5.872;2023-08-17T12:28:08;20.20;99.90
39019;DHT22;24786;51.984;5.872;2023-08-17T12:30:37;20.20;99.90
39019;DHT22;24786;51.984;5.872;2023-08-17T12:33:03;20.20;99.90
39019;DHT22;24786;51.984;5.872;2023-08-17T12:35:29;20.10;99.90
39019;DHT22;24786;51.984;5.872;2023-08-17T12:37:55;20.10;99.90
39019;DHT22;24786;51.984;5.872;2023-08-17T12:40:20;20.00;99.90
39019;DHT22;24786;51.984;5.872;2023-08-17T12:42:46;20.00;99.90
39019;DHT22;24786;51.984;5.872;2023-08-17T12:45:12;20.10;99.90
39019;DHT22;24786;51.984;5.872;2023-08-17T12:47:37;20.10;99.90
39019;DHT22;24786;51.984;5.872;2023-08-17T12:50:03;20.10;99.90
39019;DHT22;24786;51.984;5.872;2023-08-17T12:52:29;20.10;99.90
39019;DHT22;24786;51.984;5.872;2023-08-17T12:54:54;20.20;99.90
39019;DHT22;24786;51.984;5.872;2023-08-17T12:57:20;20.20;99.90
39019;DHT22;24786;51.984;5.872;2023-08-17T12:59:47;20.20;99.90
39019;DHT22;24786;51.984;5.872;2023-08-17T13:02:12;20.30;99.90
39019;DHT22;24786;51.984;5.872;2023-08-17T13:04:38;20.30;99.90
39019;DHT22;24786;51.984;5.872;2023-08-17T13:07:03;20.30;99.90
39019;DHT22;24786;51.984;5.872;2023-08-17T13:09:29;20.30;99.90
39019;DHT22;24786;51.984;5.872;2023-08-17T13:11:54;20.30;99.90
39019;DHT22;24786;51.984;5.872;2023-08-17T13:14:19;20.30;99.90
39019;DHT22;24786;51.984;5.872;2023-08-17T13:16:45;20.30;99.90
39019;DHT22;24786;51.984;5.872;2023-08-17T13:19:10;20.30;99.90
39019;DHT22;24786;51.984;5.872;2023-08-17T13:21:36;20.30;99.90
39019;DHT22;24786;51.984;5.872;2023-08-17T13:24:01;20.40;99.90
39019;DHT22;24786;51.984;5.872;2023-08-17T13:26:28;20.50;99.90
39019;DHT22;24786;51.984;5.872;2023-08-17T13:28:55;20.50;99.90
39019;DHT22;24786;51.984;5.872;2023-08-17T13:31:20;20.40;99.90
39019;DHT22;24786;51.984;5.872;2023-08-17T13:33:45;20.40;99.90
39019;DHT22;24786;51.984;5.872;2023-08-17T13:36:11;20.30;99.90
39019;DHT22;24786;51.984;5.872;2023-08-17T13:38:36;20.30;99.90
39019;DHT22;24786;51.984;5.872;2023-08-17T13:41:04;20.20;99.90
39019;DHT22;24786;51.984;5.872;2023-08-17T13:43:29;20.20;99.90
39019;DHT22;24786;51.984;5.872;2023-08-17T13:45:55;20.20;99.90
39019;DHT22;24786;51.984;5.872;2023-08-17T13:48:20;20.20;99.90
39019;DHT22;24786;51.984;5.872;2023-08-17T13:50:45;20.30;99.90
39019;DHT22;24786;51.984;5.872;2023-08-17T13:53:11;20.20;99.90
39019;DHT22;24786;51.984;5.872;2023-08-17T13:55:37;20.20;99.90
39019;DHT22;24786;51.984;5.872;2023-08-17T13:58:02;20.20;99.90
39019;DHT22;24786;51.984;5.872;2023-08-17T14:00:28;20.20;99.90
39019;DHT22;24786;51.984;5.872;2023-08-17T14:02:53;20.20;99.90
39019;DHT22;24786;51.984;5.872;2023-08-17T14:05:19;20.20;99.90
39019;DHT22;24786;51.984;5.872;2023-08-17T14:07:45;20.10;99.90
39019;DHT22;24786;51.984;5.872;2023-08-17T14:10:10;20.20;99.90
39019;DHT22;24786;51.984;5.872;2023-08-17T14:12:36;20.20;99.90
39019;DHT22;24786;51.984;5.872;2023-08-17T14:15:01;20.30;99.90
39019;DHT22;24786;51.984;5.872;2023-08-17T14:17:27;20.20;99.90
39019;DHT22;24786;51.984;5.872;2023-08-17T14:19:52;20.20;99.90
39019;DHT22;24786;51.984;5.872;2023-08-17T14:22:18;20.20;99.90
39019;DHT22;24786;51.984;5.872;2023-08-17T14:24:44;20.20;99.90
39019;DHT22;24786;51.984;5.872;2023-08-17T14:27:09;20.20;99.90
39019;DHT22;24786;51.984;5.872;2023-08-17T14:29:34;20.20;99.90
39019;DHT22;24786;51.984;5.872;2023-08-17T14:32:00;20.30;99.90
39019;DHT22;24786;51.984;5.872;2023-08-17T14:34:25;20.20;99.90
39019;DHT22;24786;51.984;5.872;2023-08-17T14:36:51;20.20;99.90
39019;DHT22;24786;51.984;5.872;2023-08-17T14:39:16;20.20;99.90
39019;DHT22;24786;51.984;5.872;2023-08-17T14:41:42;20.20;99.90
39019;DHT22;24786;51.984;5.872;2023-08-17T14:44:07;20.20;99.90
39019;DHT22;24786;51.984;5.872;2023-08-17T14:46:33;20.20;99.90
39019;DHT22;24786;51.984;5.872;2023-08-17T14:48:59;20.20;99.90
39019;DHT22;24786;51.984;5.872;2023-08-17T14:51:25;20.20;99.90
39019;DHT22;24786;51.984;5.872;2023-08-17T14:53:50;20.20;99.90
39019;DHT22;24786;51.984;5.872;2023-08-17T14:56:16;20.20;99.90
39019;DHT22;24786;51.984;5.872;2023-08-17T14:58:41;20.20;99.90
39019;DHT22;24786;51.984;5.872;2023-08-17T15:01:07;20.20;99.90
39019;DHT22;24786;51.984;5.872;2023-08-17T15:03:32;20.20;99.90
39019;DHT22;24786;51.984;5.872;2023-08-17T15:05:58;20.20;99.90
39019;DHT22;24786;51.984;5.872;2023-08-17T15:08:24;20.20;99.90
39019;DHT22;24786;51.984;5.872;2023-08-17T15:10:49;20.10;99.90
39019;DHT22;24786;51.984;5.872;2023-08-17T15:13:15;20.10;99.90
39019;DHT22;24786;51.984;5.872;2023-08-17T15:15:42;20.10;99.90
39019;DHT22;24786;51.984;5.872;2023-08-17T15:18:08;20.20;99.90
39019;DHT22;24786;51.984;5.872;2023-08-17T15:20:34;20.10;99.90
39019;DHT22;24786;51.984;5.872;2023-08-17T15:22:59;20.10;99.90
39019;DHT22;24786;51.984;5.872;2023-08-17T15:25:25;20.10;99.90
39019;DHT22;24786;51.984;5.872;2023-08-17T15:27:50;20.20;99.90
39019;DHT22;24786;51.984;5.872;2023-08-17T15:30:16;20.10;99.90
39019;DHT22;24786;51.984;5.872;2023-08-17T15:32:41;20.20;99.90